sensor_id;sensor_type;location;lat;lon;timestamp;P1;durP1;ratioP1;P2;durP2;ratioP2
12958;SDS011;6544;51.666;6.634;2022-08-26T00:02:16;34.53;;;30.65;;
12958;SDS011;6544;51.666;6.634;2022-08-26T00:04:44;32.63;;;29.27;;
12958;SDS011;6544;51.666;6.634;2022-08-26T00:07:11;41.95;;;37.45;;
12958;SDS011;6544;51.666;6.634;2022-08-26T00:09:38;39.15;;;35.33;;
12958;SDS011;6544;51.666;6.634;2022-08-26T00:12:05;47.55;;;38.92;;
12958;SDS011;6544;51.666;6.634;2022-08-26T00:14:33;43.90;;;38.42;;
12958;SDS011;6544;51.666;6.634;2022-08-26T00:17:00;40.53;;;36.50;;
12958;SDS011;6544;51.666;6.634;2022-08-26T00:19:27;40.38;;;35.95;;
12958;SDS011;6544;51.666;6.634;2022-08-26T00:21:55;38.45;;;34.30;;
12958;SDS011;6544;51.666;6.634;2022-08-26T00:24:22;41.45;;;36.22;;
12958;SDS011;6544;51.666;6.634;2022-08-26T00:26:49;42.22;;;37.80;;
12958;SDS011;6544;51.666;6.634;2022-08-26T00:29:16;36.75;;;32.80;;
12958;SDS011;6544;51.666;6.634;2022-08-26T00:31:43;47.28;;;41.40;;
12958;SDS011;6544;51.666;6.634;2022-08-26T00:34:11;48.38;;;43.45;;
12958;SDS011;6544;51.666;6.634;2022-08-26T00:36:39;42.55;;;36.85;;
12958;SDS011;6544;51.666;6.634;2022-08-26T00:39:08;39.80;;;35.50;;
12958;SDS011;6544;51.666;6.634;2022-08-26T00:41:36;44.88;;;40.08;;
12958;SDS011;6544;51.666;6.634;2022-08-26T00:44:05;42.40;;;37.10;;
12958;SDS011;6544;51.666;6.634;2022-08-26T00:46:33;39.85;;;35.58;;
12958;SDS011;6544;51.666;6.634;2022-08-26T00:49:04;45.13;;;39.88;;
12958;SDS011;6544;51.666;6.634;2022-08-26T00:51:38;44.88;;;40.22;;
12958;SDS011;6544;51.666;6.634;2022-08-26T00:54:10;44.40;;;39.72;;
12958;SDS011;6544;51.666;6.634;2022-08-26T00:56:40;43.03;;;38.40;;
12958;SDS011;6544;51.666;6.634;2022-08-26T00:59:11;45.10;;;40.28;;
12958;SDS011;6544;51.666;6.634;2022-08-26T01:01:40;54.55;;;48.90;;
12958;SDS011;6544;51.666;6.634;2022-08-26T01:04:09;45.25;;;40.38;;
12958;SDS011;6544;51.666;6.634;2022-08-26T01:06:36;45.00;;;40.30;;
12958;SDS011;6544;51.666;6.634;2022-08-26T01:09:04;47.85;;;42.55;;
12958;SDS011;6544;51.666;6.634;2022-08-26T01:11:32;48.67;;;41.05;;
12958;SDS011;6544;51.666;6.634;2022-08-26T01:14:01;45.55;;;40.75;;
12958;SDS011;6544;51.666;6.634;2022-08-26T01:16:29;44.15;;;39.42;;
12958;SDS011;6544;51.666;6.634;2022-08-26T01:18:59;46.33;;;41.33;;
12958;SDS011;6544;51.666;6.634;2022-08-26T01:21:33;44.60;;;39.00;;
12958;SDS011;6544;51.666;6.634;2022-08-26T01:24:05;54.95;;;49.00;;
12958;SDS011;6544;51.666;6.634;2022-08-26T01:26:34;51.90;;;46.33;;
12958;SDS011;6544;51.666;6.634;2022-08-26T01:29:05;49.00;;;42.95;;
12958;SDS011;6544;51.666;6.634;2022-08-26T01:31:35;50.78;;;42.17;;
12958;SDS011;6544;51.666;6.634;2022-08-26T01:34:07;46.28;;;41.17;;
12958;SDS011;6544;51.666;6.634;2022-08-26T01:36:39;43.83;;;39.05;;
12958;SDS011;6544;51.666;6.634;2022-08-26T01:39:07;49.00;;;43.72;;
12958;SDS011;6544;51.666;6.634;2022-08-26T01:41:35;49.90;;;44.50;;
12958;SDS011;6544;51.666;6.634;2022-08-26T01:44:04;44.75;;;39.83;;
12958;SDS011;6544;51.666;6.634;2022-08-26T01:46:33;43.90;;;39.22;;
12958;SDS011;6544;51.666;6.634;2022-08-26T01:49:02;53.47;;;47.85;;
12958;SDS011;6544;51.666;6.634;2022-08-26T01:51:31;50.25;;;43.50;;
12958;SDS011;6544;51.666;6.634;2022-08-26T01:54:01;49.15;;;41.33;;
12958;SDS011;6544;51.666;6.634;2022-08-26T01:56:29;44.08;;;38.75;;
12958;SDS011;6544;51.666;6.634;2022-08-26T01:58:57;45.88;;;38.70;;
12958;SDS011;6544;51.666;6.634;2022-08-26T02:01:26;45.05;;;39.65;;
12958;SDS011;6544;51.666;6.634;2022-08-26T02:03:55;55.15;;;48.00;;
12958;SDS011;6544;51.666;6.634;2022-08-26T02:06:28;46.00;;;37.45;;
12958;SDS011;6544;51.666;6.634;2022-08-26T02:08:55;39.97;;;34.05;;
12958;SDS011;6544;51.666;6.634;2022-08-26T02:11:26;42.35;;;36.08;;
12958;SDS011;6544;51.666;6.634;2022-08-26T02:13:55;45.42;;;37.70;;
12958;SDS011;6544;51.666;6.634;2022-08-26T02:16:27;51.00;;;40.35;;
12958;SDS011;6544;51.666;6.634;2022-08-26T02:18:59;47.70;;;42.60;;
12958;SDS011;6544;51.666;6.634;2022-08-26T02:21:26;37.47;;;33.40;;
12958;SDS011;6544;51.666;6.634;2022-08-26T02:23:54;38.80;;;34.55;;
12958;SDS011;6544;51.666;6.634;2022-08-26T02:26:22;46.92;;;40.13;;
12958;SDS011;6544;51.666;6.634;2022-08-26T02:28:51;41.42;;;37.00;;
12958;SDS011;6544;51.666;6.634;2022-08-26T02:31:25;42.30;;;37.72;;
12958;SDS011;6544;51.666;6.634;2022-08-26T02:33:52;45.20;;;35.28;;
12958;SDS011;6544;51.666;6.634;2022-08-26T02:36:19;36.88;;;31.48;;
12958;SDS011;6544;51.666;6.634;2022-08-26T02:38:47;41.70;;;33.67;;
12958;SDS011;6544;51.666;6.634;2022-08-26T02:41:14;42.50;;;32.28;;
12958;SDS011;6544;51.666;6.634;2022-08-26T02:43:42;44.30;;;31.00;;
12958;SDS011;6544;51.666;6.634;2022-08-26T02:46:10;41.95;;;32.80;;
12958;SDS011;6544;51.666;6.634;2022-08-26T02:48:37;40.97;;;32.60;;
12958;SDS011;6544;51.666;6.634;2022-08-26T02:51:04;37.58;;;29.88;;
12958;SDS011;6544;51.666;6.634;2022-08-26T02:53:31;50.47;;;36.85;;
12958;SDS011;6544;51.666;6.634;2022-08-26T02:55:58;37.20;;;30.73;;
12958;SDS011;6544;51.666;6.634;2022-08-26T02:58:25;34.35;;;27.85;;
12958;SDS011;6544;51.666;6.634;2022-08-26T03:00:52;48.72;;;33.05;;
12958;SDS011;6544;51.666;6.634;2022-08-26T03:03:20;46.47;;;34.42;;
12958;SDS011;6544;51.666;6.634;2022-08-26T03:05:47;41.13;;;34.20;;
12958;SDS011;6544;51.666;6.634;2022-08-26T03:08:14;43.95;;;32.65;;
12958;SDS011;6544;51.666;6.634;2022-08-26T03:10:41;34.35;;;27.88;;
12958;SDS011;6544;51.666;6.634;2022-08-26T03:13:08;32.58;;;27.50;;
12958;SDS011;6544;51.666;6.634;2022-08-26T03:15:35;44.15;;;33.40;;
12958;SDS011;6544;51.666;6.634;2022-08-26T03:18:02;37.05;;;28.13;;
12958;SDS011;6544;51.666;6.634;2022-08-26T03:20:31;33.92;;;27.52;;
12958;SDS011;6544;51.666;6.634;2022-08-26T03:22:58;37.83;;;31.98;;
12958;SDS011;6544;51.666;6.634;2022-08-26T03:25:25;37.63;;;28.70;;
12958;SDS011;6544;51.666;6.634;2022-08-26T03:27:52;36.97;;;29.13;;
12958;SDS011;6544;51.666;6.634;2022-08-26T03:30:21;38.78;;;27.95;;
12958;SDS011;6544;51.666;6.634;2022-08-26T03:33:05;37.83;;;32.97;;
12958;SDS011;6544;51.666;6.634;2022-08-26T03:35:36;34.65;;;30.73;;
12958;SDS011;6544;51.666;6.634;2022-08-26T03:38:06;37.72;;;30.85;;
12958;SDS011;6544;51.666;6.634;2022-08-26T03:40:33;33.58;;;27.52;;
12958;SDS011;6544;51.666;6.634;2022-08-26T03:43:01;32.75;;;25.85;;
12958;SDS011;6544;51.666;6.634;2022-08-26T03:45:29;40.88;;;30.95;;
12958;SDS011;6544;51.666;6.634;2022-08-26T03:47:57;37.40;;;30.90;;
12958;SDS011;6544;51.666;6.634;2022-08-26T03:50:24;35.28;;;26.73;;
12958;SDS011;6544;51.666;6.634;2022-08-26T03:52:53;35.17;;;29.80;;
12958;SDS011;6544;51.666;6.634;2022-08-26T03:55:21;34.58;;;25.75;;
12958;SDS011;6544;51.666;6.634;2022-08-26T03:57:50;36.63;;;26.70;;
12958;SDS011;6544;51.666;6.634;2022-08-26T04:00:17;33.13;;;26.58;;
12958;SDS011;6544;51.666;6.634;2022-08-26T04:02:46;36.45;;;31.23;;
12958;SDS011;6544;51.666;6.634;2022-08-26T04:05:15;34.13;;;28.63;;
12958;SDS011;6544;51.666;6.634;2022-08-26T04:07:43;45.72;;;33.75;;
12958;SDS011;6544;51.666;6.634;2022-08-26T04:10:15;37.05;;;27.73;;
12958;SDS011;6544;51.666;6.634;2022-08-26T04:12:42;39.10;;;32.00;;
12958;SDS011;6544;51.666;6.634;2022-08-26T04:15:11;40.38;;;28.63;;
12958;SDS011;6544;51.666;6.634;2022-08-26T04:17:39;37.05;;;28.63;;
12958;SDS011;6544;51.666;6.634;2022-08-26T04:20:06;31.92;;;23.48;;
12958;SDS011;6544;51.666;6.634;2022-08-26T04:22:37;35.83;;;28.70;;
12958;SDS011;6544;51.666;6.634;2022-08-26T04:25:05;31.67;;;22.80;;
12958;SDS011;6544;51.666;6.634;2022-08-26T04:27:34;29.58;;;23.27;;
12958;SDS011;6544;51.666;6.634;2022-08-26T04:30:01;32.30;;;27.38;;
12958;SDS011;6544;51.666;6.634;2022-08-26T04:32:29;27.75;;;24.20;;
12958;SDS011;6544;51.666;6.634;2022-08-26T04:34:56;26.48;;;20.95;;
12958;SDS011;6544;51.666;6.634;2022-08-26T04:37:23;31.25;;;24.27;;
12958;SDS011;6544;51.666;6.634;2022-08-26T04:39:50;33.42;;;21.75;;
12958;SDS011;6544;51.666;6.634;2022-08-26T04:42:17;27.10;;;19.83;;
12958;SDS011;6544;51.666;6.634;2022-08-26T04:44:45;30.35;;;23.35;;
12958;SDS011;6544;51.666;6.634;2022-08-26T04:47:12;26.88;;;21.63;;
12958;SDS011;6544;51.666;6.634;2022-08-26T04:49:39;27.23;;;24.00;;
12958;SDS011;6544;51.666;6.634;2022-08-26T04:52:06;29.80;;;22.60;;
12958;SDS011;6544;51.666;6.634;2022-08-26T04:54:33;25.17;;;19.60;;
12958;SDS011;6544;51.666;6.634;2022-08-26T04:57:00;26.58;;;20.08;;
12958;SDS011;6544;51.666;6.634;2022-08-26T04:59:27;29.17;;;23.08;;
12958;SDS011;6544;51.666;6.634;2022-08-26T05:01:55;27.02;;;20.50;;
12958;SDS011;6544;51.666;6.634;2022-08-26T05:04:23;26.20;;;19.90;;
12958;SDS011;6544;51.666;6.634;2022-08-26T05:06:51;22.92;;;19.02;;
12958;SDS011;6544;51.666;6.634;2022-08-26T05:09:18;32.28;;;19.02;;
12958;SDS011;6544;51.666;6.634;2022-08-26T05:11:45;23.40;;;20.52;;
12958;SDS011;6544;51.666;6.634;2022-08-26T05:14:13;23.92;;;20.05;;
12958;SDS011;6544;51.666;6.634;2022-08-26T05:16:40;32.38;;;21.90;;
12958;SDS011;6544;51.666;6.634;2022-08-26T05:19:08;24.63;;;20.00;;
12958;SDS011;6544;51.666;6.634;2022-08-26T05:21:35;25.77;;;17.42;;
12958;SDS011;6544;51.666;6.634;2022-08-26T05:24:03;27.23;;;19.17;;
12958;SDS011;6544;51.666;6.634;2022-08-26T05:26:32;27.30;;;19.65;;
12958;SDS011;6544;51.666;6.634;2022-08-26T05:28:59;23.50;;;16.55;;
12958;SDS011;6544;51.666;6.634;2022-08-26T05:31:28;24.42;;;16.45;;
12958;SDS011;6544;51.666;6.634;2022-08-26T05:33:56;21.40;;;17.55;;
12958;SDS011;6544;51.666;6.634;2022-08-26T05:36:26;24.95;;;18.65;;
12958;SDS011;6544;51.666;6.634;2022-08-26T05:38:57;20.83;;;15.45;;
12958;SDS011;6544;51.666;6.634;2022-08-26T05:41:25;21.92;;;14.73;;
12958;SDS011;6544;51.666;6.634;2022-08-26T05:43:54;19.00;;;15.07;;
12958;SDS011;6544;51.666;6.634;2022-08-26T05:46:22;24.35;;;17.38;;
12958;SDS011;6544;51.666;6.634;2022-08-26T05:48:51;21.15;;;15.73;;
12958;SDS011;6544;51.666;6.634;2022-08-26T05:51:18;27.40;;;15.40;;
12958;SDS011;6544;51.666;6.634;2022-08-26T05:53:46;25.13;;;15.68;;
12958;SDS011;6544;51.666;6.634;2022-08-26T05:56:14;24.08;;;16.83;;
12958;SDS011;6544;51.666;6.634;2022-08-26T05:58:41;17.77;;;13.90;;
12958;SDS011;6544;51.666;6.634;2022-08-26T06:01:10;18.95;;;14.88;;
12958;SDS011;6544;51.666;6.634;2022-08-26T06:03:42;23.33;;;16.35;;
12958;SDS011;6544;51.666;6.634;2022-08-26T06:06:12;21.33;;;13.90;;
12958;SDS011;6544;51.666;6.634;2022-08-26T06:08:40;25.58;;;16.98;;
12958;SDS011;6544;51.666;6.634;2022-08-26T06:11:09;20.88;;;15.50;;
12958;SDS011;6544;51.666;6.634;2022-08-26T06:13:37;19.77;;;15.25;;
12958;SDS011;6544;51.666;6.634;2022-08-26T06:16:06;21.13;;;15.20;;
12958;SDS011;6544;51.666;6.634;2022-08-26T06:18:35;19.90;;;12.00;;
12958;SDS011;6544;51.666;6.634;2022-08-26T06:21:11;20.73;;;11.90;;
12958;SDS011;6544;51.666;6.634;2022-08-26T06:23:41;18.10;;;12.35;;
12958;SDS011;6544;51.666;6.634;2022-08-26T06:26:28;14.60;;;10.02;;
12958;SDS011;6544;51.666;6.634;2022-08-26T06:28:55;18.10;;;9.93;;
12958;SDS011;6544;51.666;6.634;2022-08-26T06:31:22;15.00;;;10.20;;
12958;SDS011;6544;51.666;6.634;2022-08-26T06:33:51;16.50;;;11.25;;
12958;SDS011;6544;51.666;6.634;2022-08-26T06:36:19;21.25;;;10.18;;
12958;SDS011;6544;51.666;6.634;2022-08-26T06:38:53;18.90;;;10.00;;
12958;SDS011;6544;51.666;6.634;2022-08-26T06:41:21;14.98;;;10.30;;
12958;SDS011;6544;51.666;6.634;2022-08-26T06:43:50;17.75;;;10.52;;
12958;SDS011;6544;51.666;6.634;2022-08-26T06:46:17;18.67;;;11.45;;
12958;SDS011;6544;51.666;6.634;2022-08-26T06:48:48;18.35;;;10.90;;
12958;SDS011;6544;51.666;6.634;2022-08-26T06:51:16;20.38;;;11.98;;
12958;SDS011;6544;51.666;6.634;2022-08-26T06:53:45;16.83;;;10.25;;
12958;SDS011;6544;51.666;6.634;2022-08-26T06:56:14;19.20;;;10.55;;
12958;SDS011;6544;51.666;6.634;2022-08-26T06:58:43;13.98;;;9.23;;
12958;SDS011;6544;51.666;6.634;2022-08-26T07:01:15;16.30;;;7.97;;
12958;SDS011;6544;51.666;6.634;2022-08-26T07:03:43;15.38;;;6.80;;
12958;SDS011;6544;51.666;6.634;2022-08-26T07:06:10;12.45;;;6.13;;
12958;SDS011;6544;51.666;6.634;2022-08-26T07:08:37;18.77;;;6.55;;
12958;SDS011;6544;51.666;6.634;2022-08-26T07:11:04;12.95;;;5.93;;
12958;SDS011;6544;51.666;6.634;2022-08-26T07:13:32;15.73;;;6.13;;
12958;SDS011;6544;51.666;6.634;2022-08-26T07:16:02;11.38;;;5.50;;
12958;SDS011;6544;51.666;6.634;2022-08-26T07:18:31;16.40;;;5.60;;
12958;SDS011;6544;51.666;6.634;2022-08-26T07:21:00;12.65;;;6.28;;
12958;SDS011;6544;51.666;6.634;2022-08-26T07:23:28;11.30;;;6.15;;
12958;SDS011;6544;51.666;6.634;2022-08-26T07:25:56;12.30;;;6.47;;
12958;SDS011;6544;51.666;6.634;2022-08-26T07:28:26;13.07;;;6.18;;
12958;SDS011;6544;51.666;6.634;2022-08-26T07:30:53;14.57;;;6.35;;
12958;SDS011;6544;51.666;6.634;2022-08-26T07:33:20;11.82;;;6.60;;
12958;SDS011;6544;51.666;6.634;2022-08-26T07:35:48;15.55;;;6.50;;
12958;SDS011;6544;51.666;6.634;2022-08-26T07:38:15;14.20;;;5.57;;
12958;SDS011;6544;51.666;6.634;2022-08-26T07:40:42;11.25;;;5.35;;
12958;SDS011;6544;51.666;6.634;2022-08-26T07:43:09;9.10;;;4.53;;
12958;SDS011;6544;51.666;6.634;2022-08-26T07:45:36;9.85;;;4.78;;
12958;SDS011;6544;51.666;6.634;2022-08-26T07:48:03;7.43;;;4.22;;
12958;SDS011;6544;51.666;6.634;2022-08-26T07:50:30;8.68;;;4.20;;
12958;SDS011;6544;51.666;6.634;2022-08-26T07:53:00;17.52;;;4.28;;
12958;SDS011;6544;51.666;6.634;2022-08-26T07:55:29;12.40;;;4.40;;
12958;SDS011;6544;51.666;6.634;2022-08-26T07:57:56;10.07;;;4.60;;
12958;SDS011;6544;51.666;6.634;2022-08-26T08:00:23;16.55;;;5.18;;
12958;SDS011;6544;51.666;6.634;2022-08-26T08:02:51;10.30;;;4.68;;
12958;SDS011;6544;51.666;6.634;2022-08-26T08:05:19;11.05;;;5.05;;
12958;SDS011;6544;51.666;6.634;2022-08-26T08:07:47;11.43;;;3.88;;
12958;SDS011;6544;51.666;6.634;2022-08-26T08:10:17;12.55;;;4.60;;
12958;SDS011;6544;51.666;6.634;2022-08-26T08:12:46;12.15;;;4.38;;
12958;SDS011;6544;51.666;6.634;2022-08-26T08:15:15;11.60;;;4.45;;
12958;SDS011;6544;51.666;6.634;2022-08-26T08:17:44;9.98;;;4.00;;
12958;SDS011;6544;51.666;6.634;2022-08-26T08:20:12;10.38;;;4.45;;
12958;SDS011;6544;51.666;6.634;2022-08-26T08:22:39;13.05;;;4.45;;
12958;SDS011;6544;51.666;6.634;2022-08-26T08:25:07;11.25;;;4.50;;
12958;SDS011;6544;51.666;6.634;2022-08-26T08:27:36;9.43;;;4.28;;
12958;SDS011;6544;51.666;6.634;2022-08-26T08:30:04;12.63;;;5.30;;
12958;SDS011;6544;51.666;6.634;2022-08-26T08:32:32;14.85;;;4.72;;
12958;SDS011;6544;51.666;6.634;2022-08-26T08:35:02;14.38;;;3.67;;
12958;SDS011;6544;51.666;6.634;2022-08-26T08:37:30;10.25;;;3.55;;
12958;SDS011;6544;51.666;6.634;2022-08-26T08:39:57;12.85;;;4.03;;
12958;SDS011;6544;51.666;6.634;2022-08-26T08:42:36;11.60;;;3.75;;
12958;SDS011;6544;51.666;6.634;2022-08-26T08:45:11;7.40;;;3.40;;
12958;SDS011;6544;51.666;6.634;2022-08-26T08:47:43;7.10;;;4.03;;
12958;SDS011;6544;51.666;6.634;2022-08-26T08:50:16;11.90;;;3.80;;
12958;SDS011;6544;51.666;6.634;2022-08-26T08:52:48;14.43;;;5.05;;
12958;SDS011;6544;51.666;6.634;2022-08-26T08:55:20;13.73;;;4.97;;
12958;SDS011;6544;51.666;6.634;2022-08-26T08:57:54;11.30;;;4.30;;
12958;SDS011;6544;51.666;6.634;2022-08-26T09:00:28;14.15;;;4.45;;
12958;SDS011;6544;51.666;6.634;2022-08-26T09:03:02;10.43;;;4.35;;
12958;SDS011;6544;51.666;6.634;2022-08-26T09:05:37;11.77;;;4.40;;
12958;SDS011;6544;51.666;6.634;2022-08-26T09:08:09;9.18;;;4.20;;
12958;SDS011;6544;51.666;6.634;2022-08-26T09:10:42;10.82;;;4.43;;
12958;SDS011;6544;51.666;6.634;2022-08-26T09:13:16;9.95;;;4.70;;
12958;SDS011;6544;51.666;6.634;2022-08-26T09:15:47;12.98;;;4.45;;
12958;SDS011;6544;51.666;6.634;2022-08-26T09:18:26;12.93;;;4.75;;
12958;SDS011;6544;51.666;6.634;2022-08-26T09:21:14;9.88;;;4.82;;
12958;SDS011;6544;51.666;6.634;2022-08-26T09:23:43;10.07;;;4.45;;
12958;SDS011;6544;51.666;6.634;2022-08-26T09:26:15;11.63;;;4.50;;
12958;SDS011;6544;51.666;6.634;2022-08-26T09:28:46;8.88;;;3.55;;
12958;SDS011;6544;51.666;6.634;2022-08-26T09:31:18;10.88;;;3.30;;
12958;SDS011;6544;51.666;6.634;2022-08-26T09:33:47;8.13;;;3.25;;
12958;SDS011;6544;51.666;6.634;2022-08-26T09:36:18;17.00;;;4.00;;
12958;SDS011;6544;51.666;6.634;2022-08-26T09:38:50;10.98;;;3.45;;
12958;SDS011;6544;51.666;6.634;2022-08-26T09:41:20;9.27;;;3.80;;
12958;SDS011;6544;51.666;6.634;2022-08-26T09:44:10;11.85;;;4.70;;
12958;SDS011;6544;51.666;6.634;2022-08-26T09:46:44;9.50;;;4.05;;
12958;SDS011;6544;51.666;6.634;2022-08-26T09:49:19;11.27;;;4.97;;
12958;SDS011;6544;51.666;6.634;2022-08-26T09:52:01;10.13;;;3.90;;
12958;SDS011;6544;51.666;6.634;2022-08-26T09:54:34;12.13;;;4.07;;
12958;SDS011;6544;51.666;6.634;2022-08-26T09:57:09;13.15;;;4.75;;
12958;SDS011;6544;51.666;6.634;2022-08-26T09:59:44;10.38;;;3.42;;
12958;SDS011;6544;51.666;6.634;2022-08-26T10:02:21;9.55;;;3.47;;
12958;SDS011;6544;51.666;6.634;2022-08-26T10:05:00;11.85;;;3.30;;
12958;SDS011;6544;51.666;6.634;2022-08-26T10:07:35;6.30;;;3.03;;
12958;SDS011;6544;51.666;6.634;2022-08-26T10:10:09;16.75;;;3.70;;
12958;SDS011;6544;51.666;6.634;2022-08-26T10:12:45;6.78;;;2.83;;
12958;SDS011;6544;51.666;6.634;2022-08-26T10:15:19;9.65;;;3.00;;
12958;SDS011;6544;51.666;6.634;2022-08-26T10:17:50;7.50;;;2.95;;
12958;SDS011;6544;51.666;6.634;2022-08-26T10:20:24;12.30;;;3.40;;
12958;SDS011;6544;51.666;6.634;2022-08-26T10:22:54;8.38;;;2.67;;
12958;SDS011;6544;51.666;6.634;2022-08-26T10:25:31;8.25;;;2.83;;
12958;SDS011;6544;51.666;6.634;2022-08-26T10:28:03;8.55;;;2.67;;
12958;SDS011;6544;51.666;6.634;2022-08-26T10:30:44;9.18;;;3.20;;
12958;SDS011;6544;51.666;6.634;2022-08-26T10:33:16;12.63;;;3.47;;
12958;SDS011;6544;51.666;6.634;2022-08-26T10:35:46;6.68;;;3.00;;
12958;SDS011;6544;51.666;6.634;2022-08-26T10:38:22;10.38;;;3.22;;
12958;SDS011;6544;51.666;6.634;2022-08-26T10:40:54;6.35;;;3.22;;
12958;SDS011;6544;51.666;6.634;2022-08-26T10:43:27;5.68;;;2.65;;
12958;SDS011;6544;51.666;6.634;2022-08-26T10:46:00;7.90;;;3.45;;
12958;SDS011;6544;51.666;6.634;2022-08-26T10:48:32;11.88;;;3.25;;
12958;SDS011;6544;51.666;6.634;2022-08-26T10:51:06;7.82;;;2.85;;
12958;SDS011;6544;51.666;6.634;2022-08-26T10:53:37;7.63;;;3.70;;
12958;SDS011;6544;51.666;6.634;2022-08-26T10:56:11;13.45;;;3.50;;
12958;SDS011;6544;51.666;6.634;2022-08-26T10:58:52;9.48;;;3.72;;
12958;SDS011;6544;51.666;6.634;2022-08-26T11:01:30;12.18;;;3.80;;
12958;SDS011;6544;51.666;6.634;2022-08-26T11:04:13;9.77;;;3.33;;
12958;SDS011;6544;51.666;6.634;2022-08-26T11:06:48;14.75;;;3.90;;
12958;SDS011;6544;51.666;6.634;2022-08-26T11:09:54;8.68;;;3.30;;
12958;SDS011;6544;51.666;6.634;2022-08-26T11:18:37;7.53;;;3.30;;
12958;SDS011;6544;51.666;6.634;2022-08-26T11:30:36;7.65;;;3.13;;
12958;SDS011;6544;51.666;6.634;2022-08-26T11:33:08;10.85;;;3.40;;
12958;SDS011;6544;51.666;6.634;2022-08-26T11:38:26;9.50;;;3.78;;
12958;SDS011;6544;51.666;6.634;2022-08-26T11:41:05;8.20;;;3.20;;
12958;SDS011;6544;51.666;6.634;2022-08-26T11:43:33;9.57;;;3.55;;
12958;SDS011;6544;51.666;6.634;2022-08-26T11:46:04;7.53;;;2.75;;
12958;SDS011;6544;51.666;6.634;2022-08-26T11:48:34;7.05;;;2.70;;
12958;SDS011;6544;51.666;6.634;2022-08-26T11:51:04;12.35;;;3.10;;
12958;SDS011;6544;51.666;6.634;2022-08-26T11:53:34;7.18;;;2.47;;
12958;SDS011;6544;51.666;6.634;2022-08-26T11:56:04;9.13;;;2.90;;
12958;SDS011;6544;51.666;6.634;2022-08-26T11:58:39;7.70;;;2.78;;
12958;SDS011;6544;51.666;6.634;2022-08-26T12:01:08;10.52;;;3.17;;
12958;SDS011;6544;51.666;6.634;2022-08-26T12:03:39;8.27;;;3.58;;
12958;SDS011;6544;51.666;6.634;2022-08-26T12:06:14;9.55;;;3.15;;
12958;SDS011;6544;51.666;6.634;2022-08-26T12:08:46;8.25;;;3.10;;
12958;SDS011;6544;51.666;6.634;2022-08-26T12:11:19;9.93;;;3.60;;
12958;SDS011;6544;51.666;6.634;2022-08-26T12:13:55;9.95;;;3.28;;
12958;SDS011;6544;51.666;6.634;2022-08-26T12:16:24;6.65;;;3.50;;
12958;SDS011;6544;51.666;6.634;2022-08-26T12:18:52;12.48;;;2.92;;
12958;SDS011;6544;51.666;6.634;2022-08-26T12:21:21;7.05;;;2.70;;
12958;SDS011;6544;51.666;6.634;2022-08-26T12:23:52;5.40;;;2.55;;
12958;SDS011;6544;51.666;6.634;2022-08-26T12:26:23;7.00;;;2.42;;
12958;SDS011;6544;51.666;6.634;2022-08-26T12:28:53;7.75;;;2.70;;
12958;SDS011;6544;51.666;6.634;2022-08-26T12:31:24;6.97;;;2.45;;
12958;SDS011;6544;51.666;6.634;2022-08-26T12:33:54;6.82;;;2.20;;
12958;SDS011;6544;51.666;6.634;2022-08-26T12:36:25;8.13;;;2.33;;
12958;SDS011;6544;51.666;6.634;2022-08-26T12:38:55;7.90;;;2.78;;
12958;SDS011;6544;51.666;6.634;2022-08-26T12:41:37;6.10;;;2.30;;
12958;SDS011;6544;51.666;6.634;2022-08-26T12:47:02;8.18;;;3.17;;
12958;SDS011;6544;51.666;6.634;2022-08-26T12:49:32;5.22;;;2.65;;
12958;SDS011;6544;51.666;6.634;2022-08-26T12:52:02;5.50;;;2.42;;
12958;SDS011;6544;51.666;6.634;2022-08-26T12:54:29;8.77;;;3.15;;
12958;SDS011;6544;51.666;6.634;2022-08-26T12:57:10;5.03;;;2.30;;
12958;SDS011;6544;51.666;6.634;2022-08-26T12:59:38;7.22;;;2.30;;
12958;SDS011;6544;51.666;6.634;2022-08-26T13:02:05;10.52;;;2.80;;
12958;SDS011;6544;51.666;6.634;2022-08-26T13:04:41;6.93;;;2.97;;
12958;SDS011;6544;51.666;6.634;2022-08-26T13:07:21;12.35;;;2.85;;
12958;SDS011;6544;51.666;6.634;2022-08-26T13:09:51;8.30;;;2.72;;
12958;SDS011;6544;51.666;6.634;2022-08-26T13:12:24;8.18;;;2.85;;
12958;SDS011;6544;51.666;6.634;2022-08-26T13:14:53;8.63;;;2.50;;
12958;SDS011;6544;51.666;6.634;2022-08-26T13:17:22;9.13;;;3.17;;
12958;SDS011;6544;51.666;6.634;2022-08-26T13:19:49;4.75;;;2.50;;
12958;SDS011;6544;51.666;6.634;2022-08-26T13:22:16;10.88;;;2.75;;
12958;SDS011;6544;51.666;6.634;2022-08-26T13:24:50;10.88;;;2.63;;
12958;SDS011;6544;51.666;6.634;2022-08-26T13:27:19;8.57;;;2.78;;
12958;SDS011;6544;51.666;6.634;2022-08-26T13:29:50;8.43;;;3.10;;
12958;SDS011;6544;51.666;6.634;2022-08-26T13:32:17;9.77;;;2.90;;
12958;SDS011;6544;51.666;6.634;2022-08-26T13:34:49;9.07;;;3.20;;
12958;SDS011;6544;51.666;6.634;2022-08-26T13:37:16;9.30;;;2.97;;
12958;SDS011;6544;51.666;6.634;2022-08-26T13:39:46;10.05;;;2.50;;
12958;SDS011;6544;51.666;6.634;2022-08-26T13:42:17;8.77;;;2.95;;
12958;SDS011;6544;51.666;6.634;2022-08-26T13:44:44;7.32;;;2.88;;
12958;SDS011;6544;51.666;6.634;2022-08-26T13:47:14;9.10;;;2.83;;
12958;SDS011;6544;51.666;6.634;2022-08-26T13:49:42;5.85;;;2.92;;
12958;SDS011;6544;51.666;6.634;2022-08-26T13:52:10;9.57;;;2.83;;
12958;SDS011;6544;51.666;6.634;2022-08-26T13:54:37;13.75;;;3.88;;
12958;SDS011;6544;51.666;6.634;2022-08-26T13:57:05;15.15;;;2.97;;
12958;SDS011;6544;51.666;6.634;2022-08-26T13:59:33;5.97;;;3.00;;
12958;SDS011;6544;51.666;6.634;2022-08-26T14:02:00;10.80;;;2.75;;
12958;SDS011;6544;51.666;6.634;2022-08-26T14:04:28;8.88;;;3.03;;
12958;SDS011;6544;51.666;6.634;2022-08-26T14:06:54;6.32;;;2.67;;
12958;SDS011;6544;51.666;6.634;2022-08-26T14:09:21;5.15;;;2.30;;
12958;SDS011;6544;51.666;6.634;2022-08-26T14:11:48;10.13;;;2.83;;
12958;SDS011;6544;51.666;6.634;2022-08-26T14:14:17;9.52;;;2.80;;
12958;SDS011;6544;51.666;6.634;2022-08-26T14:16:44;9.32;;;2.33;;
12958;SDS011;6544;51.666;6.634;2022-08-26T14:19:10;10.32;;;2.88;;
12958;SDS011;6544;51.666;6.634;2022-08-26T14:21:38;8.30;;;2.10;;
12958;SDS011;6544;51.666;6.634;2022-08-26T14:24:05;6.85;;;2.92;;
12958;SDS011;6544;51.666;6.634;2022-08-26T14:26:32;6.85;;;2.75;;
12958;SDS011;6544;51.666;6.634;2022-08-26T14:29:00;10.65;;;2.60;;
12958;SDS011;6544;51.666;6.634;2022-08-26T14:31:30;7.53;;;2.40;;
12958;SDS011;6544;51.666;6.634;2022-08-26T14:34:00;10.35;;;2.45;;
12958;SDS011;6544;51.666;6.634;2022-08-26T14:36:29;8.10;;;2.47;;
12958;SDS011;6544;51.666;6.634;2022-08-26T14:38:57;5.60;;;2.28;;
12958;SDS011;6544;51.666;6.634;2022-08-26T14:41:26;9.48;;;2.88;;
12958;SDS011;6544;51.666;6.634;2022-08-26T14:43:58;10.80;;;2.75;;
12958;SDS011;6544;51.666;6.634;2022-08-26T14:46:30;9.35;;;2.35;;
12958;SDS011;6544;51.666;6.634;2022-08-26T14:48:59;7.28;;;2.20;;
12958;SDS011;6544;51.666;6.634;2022-08-26T14:51:28;3.95;;;2.00;;
12958;SDS011;6544;51.666;6.634;2022-08-26T14:53:55;13.27;;;2.22;;
12958;SDS011;6544;51.666;6.634;2022-08-26T14:56:40;7.88;;;2.00;;
12958;SDS011;6544;51.666;6.634;2022-08-26T14:59:10;7.07;;;2.40;;
12958;SDS011;6544;51.666;6.634;2022-08-26T15:01:39;10.07;;;2.80;;
12958;SDS011;6544;51.666;6.634;2022-08-26T15:04:06;6.25;;;2.28;;
12958;SDS011;6544;51.666;6.634;2022-08-26T15:06:33;8.73;;;2.50;;
12958;SDS011;6544;51.666;6.634;2022-08-26T15:09:01;6.13;;;2.20;;
12958;SDS011;6544;51.666;6.634;2022-08-26T15:11:28;5.78;;;2.10;;
12958;SDS011;6544;51.666;6.634;2022-08-26T15:13:55;7.22;;;2.13;;
12958;SDS011;6544;51.666;6.634;2022-08-26T15:16:24;5.15;;;2.17;;
12958;SDS011;6544;51.666;6.634;2022-08-26T15:18:52;4.80;;;2.20;;
12958;SDS011;6544;51.666;6.634;2022-08-26T15:21:20;9.25;;;2.30;;
12958;SDS011;6544;51.666;6.634;2022-08-26T15:23:48;8.25;;;2.65;;